createdAt,value
2022-12-25T00:00:41.142Z,995.15
2022-12-25T00:01:41.017Z,995.20
2022-12-25T00:02:41.194Z,995.17
2022-12-25T00:03:41.176Z,995.14
2022-12-25T00:04:41.003Z,995.20
2022-12-25T00:05:41.083Z,995.17
2022-12-25T00:06:40.990Z,995.10
2022-12-25T00:07:40.995Z,995.12
2022-12-25T00:08:40.983Z,995.06
2022-12-25T00:09:40.949Z,995.09
2022-12-25T00:10:45.345Z,995.11
2022-12-25T00:11:40.949Z,995.06
2022-12-25T00:12:40.990Z,995.10
2022-12-25T00:13:41.071Z,995.06
2022-12-25T00:14:40.917Z,995.04
2022-12-25T00:15:40.923Z,995.03
2022-12-25T00:16:41.039Z,995.09
2022-12-25T00:17:40.931Z,995.01
2022-12-25T00:18:40.977Z,995.10
2022-12-25T00:19:40.985Z,995.08
2022-12-25T00:20:40.940Z,995.04
2022-12-25T00:21:40.922Z,995.10
2022-12-25T00:22:40.940Z,995.08
2022-12-25T00:23:40.873Z,995.12
2022-12-25T00:24:40.857Z,995.13
2022-12-25T00:25:40.932Z,995.16
2022-12-25T00:26:40.903Z,995.14
2022-12-25T00:27:40.931Z,995.12
2022-12-25T00:28:40.938Z,995.22
2022-12-25T00:29:40.874Z,995.22
2022-12-25T00:30:40.860Z,995.20
2022-12-25T00:31:40.970Z,995.13
2022-12-25T00:32:40.853Z,995.18
2022-12-25T00:33:40.835Z,995.15
2022-12-25T00:34:40.873Z,995.21
2022-12-25T00:35:40.796Z,995.30
2022-12-25T00:36:42.221Z,995.30
2022-12-25T00:37:40.833Z,995.30
2022-12-25T00:38:40.905Z,995.31
2022-12-25T00:39:40.787Z,995.31
2022-12-25T00:40:40.795Z,995.29
2022-12-25T00:41:40.843Z,995.28
2022-12-25T00:42:40.758Z,995.30
2022-12-25T00:43:40.740Z,995.35
2022-12-25T00:44:40.791Z,995.30
2022-12-25T00:45:40.780Z,995.40
2022-12-25T00:46:40.777Z,995.41
2022-12-25T00:47:40.737Z,995.43
2022-12-25T00:48:40.807Z,995.45
2022-12-25T00:49:40.930Z,995.49
2022-12-25T00:50:40.804Z,995.46
2022-12-25T00:51:41.008Z,995.41
2022-12-25T00:52:40.690Z,995.38
2022-12-25T00:53:40.745Z,995.37
2022-12-25T00:54:40.712Z,995.41
2022-12-25T00:55:40.684Z,995.44
2022-12-25T00:56:40.672Z,995.40
2022-12-25T00:57:40.985Z,995.46
2022-12-25T00:58:40.648Z,995.46
2022-12-25T00:59:40.673Z,995.45
2022-12-25T01:00:40.730Z,995.48
2022-12-25T01:01:40.869Z,995.46
2022-12-25T01:02:40.857Z,995.46
2022-12-25T01:03:40.600Z,995.44
2022-12-25T01:04:40.599Z,995.48
2022-12-25T01:05:40.595Z,995.49
2022-12-25T01:06:40.613Z,995.54
2022-12-25T01:07:40.823Z,995.59
2022-12-25T01:08:40.607Z,995.54
2022-12-25T01:09:40.738Z,995.56
2022-12-25T01:10:40.566Z,995.61
2022-12-25T01:11:40.556Z,995.52
2022-12-25T01:12:40.562Z,995.56
2022-12-25T01:13:40.530Z,995.51
2022-12-25T01:14:40.523Z,995.50
2022-12-25T01:15:40.530Z,995.56
2022-12-25T01:16:40.585Z,995.49
2022-12-25T01:17:40.524Z,995.47
2022-12-25T01:18:40.540Z,995.52
2022-12-25T01:19:40.490Z,995.54
2022-12-25T01:20:40.522Z,995.53
2022-12-25T01:21:40.507Z,995.58
2022-12-25T01:22:40.511Z,995.52
2022-12-25T01:23:40.499Z,995.52
2022-12-25T01:24:40.506Z,995.55
2022-12-25T01:25:40.468Z,995.54
2022-12-25T01:26:40.462Z,995.53
2022-12-25T01:27:40.496Z,995.55
2022-12-25T01:28:40.461Z,995.57
2022-12-25T01:29:40.498Z,995.56
2022-12-25T01:30:40.492Z,995.59
2022-12-25T01:31:40.528Z,995.59
2022-12-25T01:32:40.498Z,995.61
2022-12-25T01:33:40.406Z,995.62
2022-12-25T01:34:40.448Z,995.65
2022-12-25T01:35:40.437Z,995.68
2022-12-25T01:36:40.442Z,995.73
2022-12-25T01:37:40.407Z,995.75
2022-12-25T01:38:40.457Z,995.70
2022-12-25T01:39:40.408Z,995.72
2022-12-25T01:40:40.437Z,995.65
2022-12-25T01:41:40.374Z,995.60
2022-12-25T01:42:40.398Z,995.68
2022-12-25T01:43:40.346Z,995.62
2022-12-25T01:44:40.374Z,995.58
2022-12-25T01:45:40.364Z,995.65
2022-12-25T01:46:40.393Z,995.60
2022-12-25T01:47:40.376Z,995.54
2022-12-25T01:48:40.307Z,995.55
2022-12-25T01:49:40.503Z,995.57
2022-12-25T01:50:40.315Z,995.59
2022-12-25T01:51:40.311Z,995.52
2022-12-25T01:52:40.300Z,995.55
2022-12-25T01:53:40.316Z,995.53
2022-12-25T01:54:40.309Z,995.61
2022-12-25T01:55:40.321Z,995.48
2022-12-25T01:56:40.308Z,995.43
2022-12-25T01:57:40.334Z,995.50
2022-12-25T01:58:40.284Z,995.54
2022-12-25T01:59:40.247Z,995.42
2022-12-25T02:00:40.283Z,995.47
2022-12-25T02:01:40.438Z,995.46
2022-12-25T02:02:40.427Z,995.43
2022-12-25T02:03:40.348Z,995.44
2022-12-25T02:04:40.483Z,995.50
2022-12-25T02:05:40.247Z,995.49
2022-12-25T02:06:40.268Z,995.50
2022-12-25T02:07:40.238Z,995.50
2022-12-25T02:08:40.177Z,995.50
2022-12-25T02:09:40.384Z,995.47
2022-12-25T02:10:40.194Z,995.53
2022-12-25T02:11:40.175Z,995.52
2022-12-25T02:12:40.174Z,995.55
2022-12-25T02:13:40.205Z,995.59
2022-12-25T02:14:40.149Z,995.60
2022-12-25T02:15:40.211Z,995.66
2022-12-25T02:16:58.174Z,995.61
2022-12-25T02:17:41.144Z,995.59
2022-12-25T02:18:40.251Z,995.59
2022-12-25T02:19:40.118Z,995.70
2022-12-25T02:20:40.186Z,995.59
2022-12-25T02:21:40.128Z,995.68
2022-12-25T02:22:40.093Z,995.65
2022-12-25T02:23:40.109Z,995.59
2022-12-25T02:24:40.103Z,995.60
2022-12-25T02:25:40.083Z,995.61
2022-12-25T02:26:40.074Z,995.58
2022-12-25T02:27:40.068Z,995.56
2022-12-25T02:28:45.385Z,995.56
2022-12-25T02:29:41.031Z,995.55
2022-12-25T02:30:47.077Z,995.55
2022-12-25T02:31:40.081Z,995.47
2022-12-25T02:32:40.066Z,995.48
2022-12-25T02:33:40.028Z,995.43
2022-12-25T02:34:40.029Z,995.46
2022-12-25T02:35:40.019Z,995.42
2022-12-25T02:36:40.002Z,995.43
2022-12-25T02:37:39.982Z,995.46
2022-12-25T02:38:39.974Z,995.39
2022-12-25T02:39:41.911Z,995.49
2022-12-25T02:40:39.976Z,995.43
2022-12-25T02:41:39.977Z,995.40
2022-12-25T02:42:39.987Z,995.38
2022-12-25T02:43:39.954Z,995.34
2022-12-25T02:44:39.951Z,995.32
2022-12-25T02:45:39.927Z,995.32
2022-12-25T02:46:39.941Z,995.37
2022-12-25T02:47:39.924Z,995.27
2022-12-25T02:48:39.940Z,995.29
2022-12-25T02:49:39.901Z,995.32
2022-12-25T02:50:39.910Z,995.30
2022-12-25T02:51:39.879Z,995.30
2022-12-25T02:52:39.891Z,995.28
2022-12-25T02:53:39.881Z,995.36
2022-12-25T02:54:39.867Z,995.29
2022-12-25T02:55:39.867Z,995.32
2022-12-25T02:56:39.860Z,995.33
2022-12-25T02:57:39.834Z,995.38
2022-12-25T02:58:39.918Z,995.34
2022-12-25T02:59:39.846Z,995.36
2022-12-25T03:00:39.831Z,995.29
2022-12-25T03:01:39.901Z,995.39
2022-12-25T03:02:39.824Z,995.40
2022-12-25T03:03:39.861Z,995.30
2022-12-25T03:04:39.829Z,995.32
2022-12-25T03:05:39.782Z,995.38
2022-12-25T03:06:39.809Z,995.34
2022-12-25T03:07:39.784Z,995.41
2022-12-25T03:08:39.788Z,995.41
2022-12-25T03:09:39.784Z,995.46
2022-12-25T03:10:39.780Z,995.45
2022-12-25T03:11:39.749Z,995.50
2022-12-25T03:12:39.848Z,995.51
2022-12-25T03:13:39.781Z,995.53
2022-12-25T03:14:39.771Z,995.54
2022-12-25T03:15:39.770Z,995.51
2022-12-25T03:16:39.782Z,995.53
2022-12-25T03:17:39.720Z,995.52
2022-12-25T03:18:39.725Z,995.53
2022-12-25T03:19:39.752Z,995.55
2022-12-25T03:20:39.701Z,995.56
2022-12-25T03:21:39.703Z,995.50
2022-12-25T03:22:39.706Z,995.54
2022-12-25T03:23:39.696Z,995.50
2022-12-25T03:24:39.717Z,995.55
2022-12-25T03:25:39.669Z,995.53
2022-12-25T03:26:39.667Z,995.56
2022-12-25T03:27:39.660Z,995.60
2022-12-25T03:28:39.685Z,995.60
2022-12-25T03:29:39.645Z,995.62
2022-12-25T03:30:39.753Z,995.59
2022-12-25T03:31:39.642Z,995.58
2022-12-25T03:32:39.632Z,995.60
2022-12-25T03:33:47.018Z,995.52
2022-12-25T03:34:40.632Z,995.54
2022-12-25T03:35:39.614Z,995.55
2022-12-25T03:36:39.640Z,995.53
2022-12-25T03:37:39.596Z,995.54
2022-12-25T03:38:39.619Z,995.53
2022-12-25T03:39:40.408Z,995.56
2022-12-25T03:40:39.635Z,995.53
2022-12-25T03:41:39.585Z,995.55
2022-12-25T03:42:39.598Z,995.51
2022-12-25T03:43:39.557Z,995.50
2022-12-25T03:44:39.587Z,995.50
2022-12-25T03:45:39.563Z,995.46
2022-12-25T03:46:39.639Z,995.51
2022-12-25T03:47:39.568Z,995.56
2022-12-25T03:48:39.525Z,995.53
2022-12-25T03:49:39.561Z,995.51
2022-12-25T03:50:39.523Z,995.45
2022-12-25T03:51:39.518Z,995.44
2022-12-25T03:52:39.509Z,995.46
2022-12-25T03:53:39.508Z,995.43
2022-12-25T03:54:39.488Z,995.46
2022-12-25T03:55:39.500Z,995.50
2022-12-25T03:56:39.491Z,995.51
2022-12-25T03:57:39.487Z,995.39
2022-12-25T03:58:39.470Z,995.37
2022-12-25T03:59:39.484Z,995.37
2022-12-25T04:00:39.488Z,995.33
2022-12-25T04:01:39.599Z,995.34
2022-12-25T04:02:39.658Z,995.31
2022-12-25T04:03:39.538Z,995.40
2022-12-25T04:04:39.492Z,995.26
2022-12-25T04:05:39.446Z,995.24
2022-12-25T04:06:39.481Z,995.34
2022-12-25T04:07:39.430Z,995.36
2022-12-25T04:08:39.406Z,995.33
2022-12-25T04:09:39.440Z,995.34
2022-12-25T04:10:39.398Z,995.22
2022-12-25T04:11:39.389Z,995.29
2022-12-25T04:12:39.397Z,995.30
2022-12-25T04:13:39.385Z,995.29
2022-12-25T04:14:39.750Z,995.28
2022-12-25T04:15:39.436Z,995.18
2022-12-25T04:16:39.404Z,995.18
2022-12-25T04:17:39.357Z,995.19
2022-12-25T04:18:39.360Z,995.26
2022-12-25T04:19:39.361Z,995.19
2022-12-25T04:20:39.657Z,995.14
2022-12-25T04:21:39.335Z,995.16
2022-12-25T04:22:39.331Z,995.13
2022-12-25T04:23:39.311Z,995.11
2022-12-25T04:24:39.325Z,995.13
2022-12-25T04:25:39.296Z,995.11
2022-12-25T04:26:39.284Z,995.14
2022-12-25T04:27:39.316Z,995.17
2022-12-25T04:28:39.285Z,995.13
2022-12-25T04:29:39.390Z,995.14
2022-12-25T04:30:39.270Z,995.11
2022-12-25T04:31:39.309Z,995.12
2022-12-25T04:32:39.244Z,995.06
2022-12-25T04:33:39.262Z,995.08
2022-12-25T04:34:39.287Z,995.11
2022-12-25T04:35:39.249Z,995.08
2022-12-25T04:36:39.254Z,995.05
2022-12-25T04:37:39.230Z,995.06
2022-12-25T04:38:39.208Z,995.04
2022-12-25T04:39:39.227Z,995.02
2022-12-25T04:40:39.196Z,995.02
2022-12-25T04:41:39.227Z,994.98
2022-12-25T04:42:39.202Z,994.98
2022-12-25T04:43:39.183Z,995.10
2022-12-25T04:44:39.336Z,995.06
2022-12-25T04:45:39.199Z,995.07
2022-12-25T04:46:39.226Z,994.97
2022-12-25T04:47:39.177Z,994.97
2022-12-25T04:48:39.151Z,994.98
2022-12-25T04:49:39.158Z,994.89
2022-12-25T04:50:39.169Z,994.91
2022-12-25T04:51:39.138Z,994.87
2022-12-25T04:52:39.161Z,994.86
2022-12-25T04:53:39.122Z,994.75
2022-12-25T04:54:39.144Z,994.74
2022-12-25T04:55:39.123Z,994.76
2022-12-25T04:56:45.317Z,994.72
2022-12-25T04:57:40.104Z,994.71
2022-12-25T04:58:39.092Z,994.68
2022-12-25T04:59:39.096Z,994.65
2022-12-25T05:00:39.080Z,994.69
2022-12-25T05:01:39.144Z,994.72
2022-12-25T05:02:39.306Z,994.71
2022-12-25T05:03:39.158Z,994.74
2022-12-25T05:04:39.068Z,994.70
2022-12-25T05:05:39.041Z,994.66
2022-12-25T05:06:39.051Z,994.69
2022-12-25T05:07:39.039Z,994.76
2022-12-25T05:08:39.010Z,994.74
2022-12-25T05:09:39.023Z,994.86
2022-12-25T05:10:39.003Z,994.91
2022-12-25T05:11:39.020Z,994.94
2022-12-25T05:12:39.038Z,994.91
2022-12-25T05:13:39.014Z,994.92
2022-12-25T05:14:38.967Z,994.96
2022-12-25T05:15:39.004Z,994.86
2022-12-25T05:16:38.995Z,994.97
2022-12-25T05:17:38.977Z,994.98
2022-12-25T05:18:38.962Z,994.97
2022-12-25T05:19:38.984Z,995.02
2022-12-25T05:20:40.482Z,994.97
2022-12-25T05:21:38.946Z,995.07
2022-12-25T05:22:38.963Z,995.04
2022-12-25T05:23:38.928Z,995.04
2022-12-25T05:24:38.945Z,994.97
2022-12-25T05:25:38.908Z,994.98
2022-12-25T05:26:38.886Z,994.92
2022-12-25T05:27:38.914Z,994.90
2022-12-25T05:28:38.876Z,994.95
2022-12-25T05:29:38.894Z,994.99
2022-12-25T05:30:38.888Z,995.01
2022-12-25T05:31:38.966Z,994.96
2022-12-25T05:32:38.858Z,994.97
2022-12-25T05:33:38.861Z,995.02
2022-12-25T05:34:38.858Z,995.03
2022-12-25T05:35:38.846Z,995.01
2022-12-25T05:36:38.838Z,995.08
2022-12-25T05:37:38.817Z,995.11
2022-12-25T05:38:38.863Z,995.17
2022-12-25T05:39:38.801Z,995.23
2022-12-25T05:40:38.827Z,995.30
2022-12-25T05:41:38.827Z,995.16
2022-12-25T05:42:38.793Z,995.28
2022-12-25T05:43:38.788Z,995.22
2022-12-25T05:44:38.787Z,995.23
2022-12-25T05:45:38.769Z,995.21
2022-12-25T05:46:38.852Z,995.14
2022-12-25T05:47:38.973Z,995.11
2022-12-25T05:48:38.767Z,995.07
2022-12-25T05:49:38.765Z,995.13
2022-12-25T05:50:38.741Z,995.09
2022-12-25T05:51:38.748Z,995.10
2022-12-25T05:52:38.728Z,995.04
2022-12-25T05:53:38.716Z,995.04
2022-12-25T05:54:38.776Z,994.98
2022-12-25T05:55:38.697Z,995.01
2022-12-25T05:56:38.715Z,995.00
2022-12-25T05:57:38.694Z,995.04
2022-12-25T05:58:38.685Z,995.00
2022-12-25T05:59:38.689Z,994.95
2022-12-25T06:00:38.672Z,994.90
2022-12-25T06:01:38.888Z,994.86
2022-12-25T06:02:38.896Z,994.95
2022-12-25T06:03:38.693Z,994.91
2022-12-25T06:04:38.662Z,994.93
2022-12-25T06:05:38.647Z,994.95
2022-12-25T06:06:38.655Z,994.98
2022-12-25T06:07:38.631Z,994.94
2022-12-25T06:08:38.649Z,994.90
2022-12-25T06:09:38.630Z,994.93
2022-12-25T06:10:38.639Z,994.90
2022-12-25T06:11:38.628Z,994.89
2022-12-25T06:12:38.622Z,994.89
2022-12-25T06:13:38.578Z,994.91
2022-12-25T06:14:38.703Z,994.91
2022-12-25T06:15:38.572Z,994.86
2022-12-25T06:16:38.723Z,994.85
2022-12-25T06:17:38.575Z,994.88
2022-12-25T06:18:38.561Z,994.84
2022-12-25T06:19:38.556Z,994.88
2022-12-25T06:20:38.545Z,994.88
2022-12-25T06:21:38.526Z,994.90
2022-12-25T06:22:38.569Z,994.87
2022-12-25T06:23:38.625Z,994.92
2022-12-25T06:24:38.598Z,994.91
2022-12-25T06:25:38.516Z,994.94
2022-12-25T06:26:38.553Z,994.93
2022-12-25T06:27:38.499Z,994.96
2022-12-25T06:28:38.509Z,994.87
2022-12-25T06:29:38.497Z,994.87
2022-12-25T06:30:38.487Z,994.87
2022-12-25T06:31:38.525Z,994.87
2022-12-25T06:32:38.467Z,994.85
2022-12-25T06:33:38.500Z,994.76
2022-12-25T06:34:38.475Z,994.78
2022-12-25T06:35:38.442Z,994.79
2022-12-25T06:36:38.481Z,994.77
2022-12-25T06:37:38.440Z,994.71
2022-12-25T06:38:38.443Z,994.78
2022-12-25T06:39:38.417Z,994.75
2022-12-25T06:40:38.448Z,994.80
2022-12-25T06:41:38.425Z,994.73
2022-12-25T06:42:38.448Z,994.76
2022-12-25T06:43:38.418Z,994.72
2022-12-25T06:44:38.454Z,994.68
2022-12-25T06:45:38.446Z,994.71
2022-12-25T06:46:38.420Z,994.68
2022-12-25T06:47:38.378Z,994.73
2022-12-25T06:48:38.388Z,994.69
2022-12-25T06:49:38.372Z,994.67
2022-12-25T06:50:38.360Z,994.70
2022-12-25T06:51:38.361Z,994.65
2022-12-25T06:52:38.352Z,994.63
2022-12-25T06:53:40.620Z,994.56
2022-12-25T06:54:38.357Z,994.60
2022-12-25T06:55:38.317Z,994.54
2022-12-25T06:56:38.332Z,994.60
2022-12-25T06:57:38.316Z,994.60
2022-12-25T06:58:38.354Z,994.55
2022-12-25T06:59:38.317Z,994.71
2022-12-25T07:00:38.403Z,994.68
2022-12-25T07:01:38.414Z,994.66
2022-12-25T07:02:38.646Z,994.62
2022-12-25T07:03:38.286Z,994.66
2022-12-25T07:04:38.286Z,994.69
2022-12-25T07:05:38.259Z,994.70
2022-12-25T07:06:38.263Z,994.72
2022-12-25T07:07:38.249Z,994.66
2022-12-25T07:08:38.251Z,994.69
2022-12-25T07:09:38.236Z,994.70
2022-12-25T07:10:38.242Z,994.70
2022-12-25T07:11:38.229Z,994.66
2022-12-25T07:12:38.216Z,994.67
2022-12-25T07:13:38.344Z,994.63
2022-12-25T07:14:38.249Z,994.57
2022-12-25T07:15:38.210Z,994.53
2022-12-25T07:16:38.223Z,994.51
2022-12-25T07:17:38.192Z,994.47
2022-12-25T07:18:38.179Z,994.47
2022-12-25T07:19:44.413Z,994.44
2022-12-25T07:20:39.165Z,994.50
2022-12-25T07:21:38.151Z,994.44
2022-12-25T07:22:38.174Z,994.44
2022-12-25T07:23:38.158Z,994.45
2022-12-25T07:24:38.152Z,994.39
2022-12-25T07:25:38.145Z,994.40
2022-12-25T07:26:38.121Z,994.38
2022-12-25T07:27:38.114Z,994.41
2022-12-25T07:28:38.141Z,994.44
2022-12-25T07:29:38.111Z,994.45
2022-12-25T07:30:38.118Z,994.44
2022-12-25T07:31:38.177Z,994.44
2022-12-25T07:32:38.082Z,994.47
2022-12-25T07:33:38.074Z,994.54
2022-12-25T07:34:38.102Z,994.55
2022-12-25T07:35:38.054Z,994.57
2022-12-25T07:36:38.090Z,994.55
2022-12-25T07:37:38.070Z,994.56
2022-12-25T07:38:38.048Z,994.47
2022-12-25T07:39:38.054Z,994.51
2022-12-25T07:40:38.034Z,994.49
2022-12-25T07:41:38.025Z,994.50
2022-12-25T07:42:38.038Z,994.49
2022-12-25T07:43:38.022Z,994.59
2022-12-25T07:44:38.010Z,994.54
2022-12-25T07:45:38.033Z,994.49
2022-12-25T07:46:38.057Z,994.43
2022-12-25T07:47:37.997Z,994.41
2022-12-25T07:48:38.014Z,994.45
2022-12-25T07:49:37.979Z,994.41
2022-12-25T07:50:37.986Z,994.39
2022-12-25T07:51:37.968Z,994.38
2022-12-25T07:52:43.280Z,994.40
2022-12-25T07:53:38.946Z,994.35
2022-12-25T07:54:37.959Z,994.37
2022-12-25T07:55:37.932Z,994.32
2022-12-25T07:56:37.941Z,994.27
2022-12-25T07:57:38.038Z,994.29
2022-12-25T07:58:37.926Z,994.18
2022-12-25T07:59:37.916Z,994.17
2022-12-25T08:00:38.096Z,994.08
2022-12-25T08:01:38.043Z,994.06
2022-12-25T08:02:38.266Z,993.93
2022-12-25T08:03:38.199Z,993.87
2022-12-25T08:04:37.870Z,993.82
2022-12-25T08:05:37.875Z,993.77
2022-12-25T08:06:37.876Z,993.77
2022-12-25T08:07:37.859Z,993.81
2022-12-25T08:08:37.863Z,993.72
2022-12-25T08:09:37.876Z,993.71
2022-12-25T08:10:37.827Z,993.77
2022-12-25T08:11:37.849Z,993.72
2022-12-25T08:12:37.822Z,993.86
2022-12-25T08:13:37.819Z,994.00
2022-12-25T08:14:37.828Z,993.96
2022-12-25T08:15:37.817Z,994.00
2022-12-25T08:16:37.832Z,993.98
2022-12-25T08:17:37.797Z,994.06
2022-12-25T08:18:37.837Z,994.08
2022-12-25T08:19:37.782Z,994.07
2022-12-25T08:20:37.802Z,994.15
2022-12-25T08:21:37.778Z,994.17
2022-12-25T08:22:38.188Z,994.09
2022-12-25T08:23:37.781Z,994.12
2022-12-25T08:24:37.741Z,994.11
2022-12-25T08:25:37.766Z,994.12
2022-12-25T08:26:37.739Z,994.17
2022-12-25T08:27:37.733Z,994.20
2022-12-25T08:28:37.756Z,994.16
2022-12-25T08:29:37.752Z,994.07
2022-12-25T08:30:37.720Z,994.08
2022-12-25T08:31:44.083Z,994.12
2022-12-25T08:32:38.711Z,994.16
2022-12-25T08:33:37.678Z,994.12
2022-12-25T08:34:44.752Z,994.16
2022-12-25T08:35:37.762Z,994.08
2022-12-25T08:36:40.521Z,994.02
2022-12-25T08:37:37.752Z,994.06
2022-12-25T08:38:37.661Z,994.01
2022-12-25T08:39:37.699Z,993.96
2022-12-25T08:40:37.667Z,994.04
2022-12-25T08:41:37.621Z,994.06
2022-12-25T08:42:37.626Z,994.11
2022-12-25T08:43:38.975Z,993.97
2022-12-25T08:44:37.627Z,994.00
2022-12-25T08:45:37.605Z,994.01
2022-12-25T08:46:37.638Z,994.04
2022-12-25T08:47:38.002Z,994.07
2022-12-25T08:48:37.630Z,994.04
2022-12-25T08:49:37.593Z,993.98
2022-12-25T08:50:37.611Z,993.98
2022-12-25T08:51:37.556Z,993.87
2022-12-25T08:52:37.583Z,993.82
2022-12-25T08:53:37.552Z,993.83
2022-12-25T08:54:37.567Z,993.88
2022-12-25T08:55:37.560Z,993.97
2022-12-25T08:56:37.558Z,994.03
2022-12-25T08:57:37.545Z,994.09
2022-12-25T08:58:37.656Z,994.06
2022-12-25T08:59:37.517Z,994.08
2022-12-25T09:00:37.612Z,994.06
2022-12-25T09:01:37.687Z,994.02
2022-12-25T09:02:37.758Z,994.04
2022-12-25T09:03:37.641Z,994.08
2022-12-25T09:04:37.487Z,994.10
2022-12-25T09:05:37.555Z,994.03
2022-12-25T09:06:37.512Z,994.00
2022-12-25T09:07:37.453Z,994.01
2022-12-25T09:08:42.413Z,993.95
2022-12-25T09:09:38.432Z,994.04
2022-12-25T09:10:37.441Z,994.02
2022-12-25T09:11:37.437Z,994.03
2022-12-25T09:12:37.424Z,993.97
2022-12-25T09:13:37.428Z,993.91
2022-12-25T09:14:37.427Z,993.90
2022-12-25T09:15:37.458Z,993.94
2022-12-25T09:16:37.406Z,993.95
2022-12-25T09:17:37.443Z,993.93
2022-12-25T09:18:37.459Z,993.91
2022-12-25T09:19:37.368Z,993.81
2022-12-25T09:20:37.383Z,993.85
2022-12-25T09:21:37.349Z,993.73
2022-12-25T09:22:37.398Z,993.70
2022-12-25T09:23:37.355Z,993.70
2022-12-25T09:24:37.353Z,993.67
2022-12-25T09:25:37.363Z,993.65
2022-12-25T09:26:37.380Z,993.68
2022-12-25T09:27:37.443Z,993.66
2022-12-25T09:28:37.426Z,993.70
2022-12-25T09:29:37.286Z,993.67
2022-12-25T09:30:37.357Z,993.56
2022-12-25T09:31:37.288Z,993.64
2022-12-25T09:32:37.302Z,993.63
2022-12-25T09:33:37.258Z,993.77
2022-12-25T09:34:37.265Z,993.74
2022-12-25T09:35:37.300Z,993.71
2022-12-25T09:36:37.307Z,993.88
2022-12-25T09:37:37.253Z,993.59
2022-12-25T09:38:37.300Z,993.62
2022-12-25T09:39:42.157Z,993.71
2022-12-25T09:40:38.233Z,993.64
2022-12-25T09:41:38.210Z,993.65
2022-12-25T09:42:37.247Z,993.67
2022-12-25T09:43:37.353Z,993.69
2022-12-25T09:44:37.215Z,993.68
2022-12-25T09:45:37.204Z,993.64
2022-12-25T09:46:37.528Z,993.61
2022-12-25T09:47:37.186Z,993.57
2022-12-25T09:48:37.174Z,993.58
2022-12-25T09:49:37.185Z,993.60
2022-12-25T09:50:37.173Z,993.58
2022-12-25T09:51:37.143Z,993.61
2022-12-25T09:52:37.163Z,993.56
2022-12-25T09:53:37.124Z,993.51
2022-12-25T09:54:38.172Z,993.54
2022-12-25T09:55:37.138Z,993.56
2022-12-25T09:56:37.139Z,993.54
2022-12-25T09:57:37.114Z,993.46
2022-12-25T09:58:37.111Z,993.47
2022-12-25T09:59:37.089Z,993.50
2022-12-25T10:00:37.121Z,993.51
2022-12-25T10:01:37.198Z,993.44
2022-12-25T10:02:37.537Z,993.45
2022-12-25T10:03:37.168Z,993.44
2022-12-25T10:04:40.753Z,993.44
2022-12-25T10:05:37.115Z,993.32
2022-12-25T10:06:37.058Z,993.35
2022-12-25T10:07:37.033Z,993.36
2022-12-25T10:08:37.044Z,993.36
2022-12-25T10:09:37.012Z,993.38
2022-12-25T10:10:37.054Z,993.22
2022-12-25T10:11:37.027Z,993.42
2022-12-25T10:12:37.019Z,993.17
2022-12-25T10:13:37.047Z,993.24
2022-12-25T10:14:37.034Z,993.26
2022-12-25T10:15:40.507Z,993.23
2022-12-25T10:16:38.278Z,993.35
2022-12-25T10:17:36.963Z,993.21
2022-12-25T10:18:36.964Z,993.18
2022-12-25T10:19:36.985Z,993.14
2022-12-25T10:20:37.014Z,993.07
2022-12-25T10:21:37.046Z,993.15
2022-12-25T10:22:36.992Z,993.09
2022-12-25T10:23:36.938Z,993.20
2022-12-25T10:24:36.957Z,993.27
2022-12-25T10:25:37.491Z,993.27
2022-12-25T10:26:36.954Z,993.29
2022-12-25T10:27:36.941Z,993.31
2022-12-25T10:28:36.911Z,993.26
2022-12-25T10:29:36.872Z,993.21
2022-12-25T10:30:36.876Z,993.18
2022-12-25T10:31:36.957Z,993.40
2022-12-25T10:32:36.863Z,993.35
2022-12-25T10:33:36.858Z,993.27
2022-12-25T10:34:36.871Z,993.25
2022-12-25T10:35:37.036Z,993.23
2022-12-25T10:36:36.834Z,993.21
2022-12-25T10:37:36.835Z,993.22
2022-12-25T10:38:36.833Z,993.21
2022-12-25T10:39:40.985Z,993.19
2022-12-25T10:40:37.865Z,993.28
2022-12-25T10:41:36.806Z,993.28
2022-12-25T10:42:36.828Z,993.28
2022-12-25T10:43:36.837Z,993.25
2022-12-25T10:44:37.149Z,993.30
2022-12-25T10:45:37.465Z,993.33
2022-12-25T10:46:36.871Z,993.30
2022-12-25T10:47:36.776Z,993.28
2022-12-25T10:48:36.782Z,993.33
2022-12-25T10:49:36.775Z,993.24
2022-12-25T10:50:36.754Z,993.24
2022-12-25T10:51:36.744Z,993.17
2022-12-25T10:52:36.756Z,993.13
2022-12-25T10:53:36.713Z,993.11
2022-12-25T10:54:36.708Z,993.01
2022-12-25T10:55:36.730Z,993.00
2022-12-25T10:56:36.714Z,992.94
2022-12-25T10:57:36.706Z,992.83
2022-12-25T10:58:36.726Z,992.86
2022-12-25T10:59:36.688Z,992.89
2022-12-25T11:00:36.793Z,992.79
2022-12-25T11:01:36.814Z,992.79
2022-12-25T11:02:36.970Z,992.81
2022-12-25T11:03:36.839Z,992.72
2022-12-25T11:04:36.670Z,992.72
2022-12-25T11:05:36.756Z,992.74
2022-12-25T11:06:36.720Z,992.77
2022-12-25T11:07:36.609Z,992.75
2022-12-25T11:08:36.629Z,992.76
2022-12-25T11:09:36.603Z,992.83
2022-12-25T11:10:36.634Z,992.76
2022-12-25T11:11:36.634Z,992.82
2022-12-25T11:12:36.622Z,992.76
2022-12-25T11:13:36.585Z,992.67
2022-12-25T11:14:36.610Z,992.54
2022-12-25T11:15:36.700Z,992.50
2022-12-25T11:16:36.754Z,992.50
2022-12-25T11:17:36.564Z,992.55
2022-12-25T11:18:36.554Z,992.47
2022-12-25T11:19:36.564Z,992.41
2022-12-25T11:20:36.597Z,992.32
2022-12-25T11:21:36.542Z,992.33
2022-12-25T11:22:36.543Z,992.43
2022-12-25T11:23:36.525Z,992.40
2022-12-25T11:24:36.538Z,992.44
2022-12-25T11:25:36.555Z,992.42
2022-12-25T11:26:36.708Z,992.44
2022-12-25T11:27:36.493Z,992.48
2022-12-25T11:28:36.530Z,992.45
2022-12-25T11:29:36.466Z,992.42
2022-12-25T11:30:36.559Z,992.46
2022-12-25T11:31:36.596Z,992.50
2022-12-25T11:32:36.459Z,992.50
2022-12-25T11:33:36.496Z,992.50
2022-12-25T11:34:36.466Z,992.50
2022-12-25T11:35:37.198Z,992.50
2022-12-25T11:36:36.422Z,992.48
2022-12-25T11:37:36.413Z,992.42
2022-12-25T11:38:36.426Z,992.42
2022-12-25T11:39:36.795Z,992.42
2022-12-25T11:40:36.381Z,992.43
2022-12-25T11:41:36.394Z,992.46
2022-12-25T11:42:36.391Z,992.44
2022-12-25T11:43:36.378Z,992.36
2022-12-25T11:44:36.369Z,992.30
2022-12-25T11:45:36.372Z,992.35
2022-12-25T11:46:36.444Z,992.34
2022-12-25T11:47:36.399Z,992.43
2022-12-25T11:48:36.341Z,992.40
2022-12-25T11:49:36.337Z,992.38
2022-12-25T11:50:36.365Z,992.35
2022-12-25T11:51:36.344Z,992.36
2022-12-25T11:52:36.337Z,992.39
2022-12-25T11:53:36.322Z,992.40
2022-12-25T11:54:36.315Z,992.41
2022-12-25T11:55:36.309Z,992.44
2022-12-25T11:56:36.299Z,992.46
2022-12-25T11:57:36.302Z,992.53
2022-12-25T11:58:36.267Z,992.50
2022-12-25T11:59:36.278Z,992.57
2022-12-25T12:00:36.250Z,992.57
2022-12-25T12:01:36.414Z,992.57
2022-12-25T12:02:36.397Z,992.57
2022-12-25T12:03:36.298Z,992.61
2022-12-25T12:04:42.415Z,992.60
2022-12-25T12:05:37.260Z,992.59
2022-12-25T12:06:36.208Z,992.62
2022-12-25T12:07:36.251Z,992.55
2022-12-25T12:08:36.199Z,992.52
2022-12-25T12:09:36.206Z,992.46
2022-12-25T12:10:36.202Z,992.43
2022-12-25T12:11:36.208Z,992.44
2022-12-25T12:12:36.199Z,992.40
2022-12-25T12:13:36.184Z,992.31
2022-12-25T12:14:36.155Z,992.33
2022-12-25T12:15:36.176Z,992.43
2022-12-25T12:16:36.231Z,992.43
2022-12-25T12:17:36.138Z,992.38
2022-12-25T12:18:36.168Z,992.32
2022-12-25T12:19:36.160Z,992.20
2022-12-25T12:20:36.146Z,992.31
2022-12-25T12:21:36.158Z,992.28
2022-12-25T12:22:36.348Z,992.21
2022-12-25T12:23:36.147Z,992.14
2022-12-25T12:24:36.100Z,992.07
2022-12-25T12:25:36.073Z,992.06
2022-12-25T12:26:36.091Z,992.04
2022-12-25T12:27:36.071Z,991.92
2022-12-25T12:28:36.062Z,991.94